• Join FlightAware (Why Join?)
  • Login
  • US Flag 
04:52PM EST


 

Airport Tracker/Info


-or-


 

Live Flight TrackerFlight Track Log ✈ UAL555 ✈ 27-Jun-2013 ✈ KIAH - KPDX

Flight Track Log - Related Links

Times and Time Zones

All times are in EDT time to prevent confusion due to time zone crossing. See the UAL555 flight status page for this flight to view local times or setup timezone preferences in your user account.

Time Position Orientation Groundspeed Altitude Reporting Facility
EDT Latitude Longitude Course Direction KTS MPH feet Rate Location/Type
10:36PM 29.9594 -95.3414 334° Northwest 174 200 800  Level Houston Center
10:37PM 29.9339 -95.3831 235° Southwest 242 278 2,600 1,740 Climbing Houston Center
10:38PM 30.2970 -95.5205 334° Northwest  Level FlightAware Approximate
10:38PM 29.9928 -95.4072 340° North 287 330 4,000  Level Houston Center
10:39PM 30.4034 -95.5796 334° Northwest  Level FlightAware Approximate
10:39PM 30.0689 -95.4128 356° North 272 313 4,000  Level Houston Center
10:40PM 30.5099 -95.6383 337° Northwest  Level FlightAware Approximate
10:40PM 30.1433 -95.4256 352° North 272 313 4,500  Level Houston Center
10:41PM 30.6167 -95.6963 334° Northwest  Level FlightAware Approximate
10:41PM 30.2178 -95.4658 335° Northwest 281 323 7,400  Level Houston Center
10:42PM 30.2914 -95.5089 333° Northwest 290 334 10,000 1,860 Climbing Houston Center
10:43PM 30.3708 -95.5550 333° Northwest 310 357 11,300 1,740 Climbing Houston Center
10:44PM 30.4628 -95.6069 334° Northwest 357 411 13,600 2,400 Climbing Houston Center
10:45PM 30.5728 -95.6725 333° Northwest 369 425 16,300 2,280 Climbing Houston Center
10:46PM 30.6717 -95.7233 336° Northwest 382 440 18,300 1,860 Climbing Houston Center
10:47PM 30.7686 -95.7789 334° Northwest 382 440 20,100 1,680 Climbing Houston Center
10:48PM 30.8703 -95.8328 336° Northwest 390 449 21,800 1,440 Climbing Houston Center
10:49PM 30.9786 -95.8906 335° Northwest 416 479 23,100 1,380 Climbing Houston Center
10:50PM 31.0872 -95.9494 335° Northwest 427 491 24,700 1,440 Climbing Houston Center
10:51PM 31.2008 -95.9994 339° North 433 498 26,100 1,320 Climbing Houston Center
10:52PM 31.3189 -96.0450 342° North 442 509 27,500 1,380 Climbing Houston Center
10:53PM 31.4414 -96.0908 342° North 450 518 29,000 1,260 Climbing Houston Center
10:54PM 31.5614 -96.1378 342° North 451 519 30,200 1,200 Climbing Houston Center
10:55PM 31.6836 -96.1856 342° North 457 526 31,500 1,320 Climbing Houston Center
10:56PM 31.8056 -96.2383 340° North 462 532 33,000 1,260 Climbing Houston Center
10:57PM 31.8978 -96.3447 316° Northwest 463 533 34,200 1,260 Climbing Houston Center
10:58PM 31.9928 -96.4886 308° West 472 543 35,600 780 Climbing Houston Center
10:59PM 32.0731 -96.6167 307° West 465 535 36,000 180 Climbing Fort Worth Center
11:00PM 32.1531 -96.7361 308° West 465 535 36,000  Level Fort Worth Center
11:01PM 32.2350 -96.8583 308° West 471 542 36,000  Level Fort Worth Center
11:02PM 32.3192 -96.9831 309° West 483 556 36,000  Level Fort Worth Center
11:03PM 32.4008 -97.1083 308° West 483 556 36,000  Level Fort Worth Center
11:04PM 32.4847 -97.2361 308° West 483 556 36,000  Level Fort Worth Center
11:05PM 32.5661 -97.3617 308° West 483 556 36,000  Level Fort Worth Center
11:06PM 32.6539 -97.4972 308° West 483 556 36,000  Level Fort Worth Center
11:07PM 32.7350 -97.6208 308° West 483 556 36,000  Level Fort Worth Center
11:08PM 32.8161 -97.7422 309° West 478 550 36,000  Level Fort Worth Center
11:09PM 32.8972 -97.8614 309° West 478 550 36,000  Level Fort Worth Center
11:10PM 32.9781 -97.9831 308° West 473 544 36,000  Level Fort Worth Center
11:11PM 33.0589 -98.1050 308° West 468 539 36,000  Level Fort Worth Center
11:12PM 33.1375 -98.2272 308° West 468 539 36,000  Level Fort Worth Center
11:13PM 33.2161 -98.3494 308° West 468 539 36,000  Level Fort Worth Center
11:14PM 33.2944 -98.4672 309° West 468 539 36,000  Level Fort Worth Center
11:15PM 33.3747 -98.5900 308° West 462 532 36,000  Level Fort Worth Center
11:16PM 33.4550 -98.7156 307° West 475 547 36,000  Level Fort Worth Center
11:17PM 33.5350 -98.8389 308° West 475 547 36,000  Level Fort Worth Center
11:18PM 33.6147 -98.9700 306° West 481 554 36,000  Level Fort Worth Center
11:19PM 33.6944 -99.0936 308° West 481 554 36,000  Level Fort Worth Center
11:20PM 33.7722 -99.2150 308° West 476 548 36,000  Level Fort Worth Center
11:21PM 33.8375 -99.3164 308° West 476 548 36,000  Level Fort Worth Center
11:22PM 33.9289 -99.4661 306° West 476 548 36,000  Level Fort Worth Center
11:23PM 33.9828 -99.6178 293° West 476 548 36,000  Level Fort Worth Center
11:24PM 34.0364 -99.7594 295° West 476 548 36,000  Level Fort Worth Center
11:25PM 34.0881 -99.9064 293° West 476 548 36,000  Level Fort Worth Center
11:26PM 34.1414 -100.0508 294° West 476 548 36,000  Level Fort Worth Center
11:27PM 34.1967 -100.1981 294° West 476 548 36,000  Level Fort Worth Center
11:30PM 34.3150 -100.5317 293° West 478 550 36,000  Level Albuquerque Center
11:31PM 34.3669 -100.6786 293° West 477 549 36,000  Level Albuquerque Center
11:32PM 34.4194 -100.8256 293° West 476 548 36,000  Level Albuquerque Center
11:33PM 34.4717 -100.9719 293° West 475 547 36,000  Level Albuquerque Center
11:34PM 34.5222 -101.1169 293° West 471 542 36,000  Level Albuquerque Center
11:35PM 34.5731 -101.2617 293° West 468 539 36,000  Level Albuquerque Center
11:36PM 34.6336 -101.4336 293° West 464 534 36,000  Level Albuquerque Center
11:37PM 34.6847 -101.5772 293° West 461 531 36,000  Level Albuquerque Center
11:38PM 34.7342 -101.7225 293° West 462 532 36,000  Level Albuquerque Center
11:39PM 34.7839 -101.8664 293° West 461 531 36,000  Level Albuquerque Center
11:40PM 34.8353 -102.0100 294° West 460 529 36,000  Level Albuquerque Center
11:41PM 34.8872 -102.1539 294° West 461 531 36,000  Level Albuquerque Center
11:42PM 34.9378 -102.2989 293° West 462 532 36,000  Level Albuquerque Center
11:43PM 34.9897 -102.4431 294° West 463 533 36,000  Level Albuquerque Center
11:44PM 35.0417 -102.5861 294° West 462 532 36,000  Level Albuquerque Center
11:45PM 35.0947 -102.7317 294° West 467 537 36,000  Level Albuquerque Center
11:46PM 35.1572 -102.9036 294° West 463 533 36,000  Level Albuquerque Center
11:47PM 35.2114 -103.0486 295° West 465 535 36,000  Level Albuquerque Center
11:48PM 35.2653 -103.1942 294° West 467 537 36,000  Level Albuquerque Center
11:49PM 35.3183 -103.3400 294° West 467 537 36,000  Level Albuquerque Center
11:50PM 35.3711 -103.4842 294° West 463 533 36,000  Level Albuquerque Center
11:51PM 35.4256 -103.6275 295° West 462 532 36,000  Level Albuquerque Center
11:52PM 35.5086 -103.7481 310° West 462 532 36,000  Level Albuquerque Center
11:53PM 35.5969 -103.8639 313° West 462 532 36,000  Level Albuquerque Center
11:54PM 35.6844 -103.9811 313° West 464 534 36,000  Level Albuquerque Center
11:55PM 35.7722 -104.0975 313° West 463 533 36,000  Level Albuquerque Center
11:56PM 35.8592 -104.2133 313° West 460 529 36,000  Level Albuquerque Center
11:57PM 35.9606 -104.3503 312° West 460 529 36,000  Level Albuquerque Center
11:58PM 36.0478 -104.4672 313° West 460 529 36,000  Level Albuquerque Center
11:59PM 36.1344 -104.5839 313° West 458 527 36,000  Level Albuquerque Center
12:00AM 36.2208 -104.6981 313° West 454 522 36,000  Level Albuquerque Center
12:01AM 36.3061 -104.8136 313° West 451 519 36,000  Level Albuquerque Center
12:02AM 36.3906 -104.9311 312° West 452 520 36,000  Level Albuquerque Center
12:03AM 36.4772 -105.0469 313° West 454 522 36,000  Level Albuquerque Center
12:04AM 36.5633 -105.1644 312° West 456 525 36,000  Level Albuquerque Center
12:05AM 36.6583 -105.2964 312° West 461 531 36,000  Level Albuquerque Center
12:06AM 36.7400 -105.4081 312° West 456 525 36,000  Level Albuquerque Center
12:07AM 36.8272 -105.5308 312° West 459 528 36,000  Level Albuquerque Center
12:08AM 36.9133 -105.6469 313° West 470 541 36,000  Level Albuquerque Center
12:09AM 37.0003 -105.7706 311° West 457 526 36,000  Level Denver Center
12:10AM 37.0861 -105.8922 312° West 459 528 36,000  Level Denver Center
12:11AM 37.1689 -106.0067 312° West 461 531 36,000  Level Denver Center
12:12AM 37.2489 -106.1217 311° West 459 528 36,000  Level Denver Center
12:14AM 37.3453 -106.2542 312° West 461 531 36,000  Level Denver Center
12:15AM 37.4258 -106.3694 311° West 461 531 36,000  Level Denver Center
12:16AM 37.5200 -106.5050 311° West 460 529 36,000 180 Level Denver Center
12:17AM 37.5983 -106.6200 311° West 455 524 36,400 720 Climbing Denver Center
12:18AM 37.6792 -106.7364 311° West 459 528 37,500 780 Climbing Denver Center
12:19AM 37.7753 -106.8722 312° West 466 536 38,000 240 Climbing Denver Center
12:20AM 37.8536 -106.9881 311° West 464 534 38,000  Level Denver Center
12:21AM 37.9483 -107.1253 311° West 460 529 38,000  Level Denver Center
12:22AM 38.0297 -107.2439 311° West 459 528 38,000  Level Denver Center
12:23AM 38.1214 -107.3792 311° West 457 526 38,000  Level Denver Center
12:24AM 38.2006 -107.4958 311° West 456 525 38,000  Level Denver Center
12:25AM 38.2808 -107.6150 311° West 461 531 38,000  Level Denver Center
12:26AM 38.3747 -107.7556 310° West 468 539 38,000  Level Denver Center
12:27AM 38.4531 -107.8758 310° West 461 531 38,000  Level Denver Center
12:28AM 38.5331 -107.9947 311° West 460 529 38,000  Level Denver Center
12:29AM 38.6253 -108.1344 310° West 460 529 38,000  Level Denver Center
12:30AM 38.7042 -108.2547 310° West 461 531 38,000  Level Denver Center
12:31AM 38.7961 -108.3956 310° West 461 531 38,000  Level Denver Center
12:32AM 38.8767 -108.5169 310° West 466 536 38,000  Level Denver Center
12:33AM 38.9569 -108.6394 310° West 468 539 38,000  Level Denver Center
12:34AM 39.0500 -108.7806 310° West 461 531 38,000  Level Denver Center
12:35AM 39.1108 -108.9183 300° West 458 527 38,000  Level Denver Center
12:36AM 39.1669 -109.0592 297° West 459 528 38,000  Level Denver Center
12:36AM 39.1947 -109.1286 297° West 456 525 38,000  Level Salt Lake Center
12:37AM 39.2325 -109.2219 298° West 456 525 38,000  Level Denver Center
12:38AM 39.2881 -109.3614 297° West 454 522 38,000  Level Denver Center
12:39AM 39.3153 -109.4306 297° West 452 520 38,000  Level Salt Lake Center
12:40AM 39.3792 -109.5903 297° West 448 516 38,000  Level Salt Lake Center
12:41AM 39.4339 -109.7283 297° West 447 514 38,000  Level Salt Lake Center
12:42AM 39.5092 -109.8489 309° West 446 513 38,000  Level Salt Lake Center
12:43AM 39.6056 -109.9869 312° West 456 525 38,000  Level Salt Lake Center
12:44AM 39.6853 -110.1025 312° West 452 520 38,000  Level Salt Lake Center
12:45AM 39.7681 -110.2200 313° West 457 526 38,000  Level Salt Lake Center
12:46AM 39.8614 -110.3514 313° West 448 516 38,000  Level Salt Lake Center
12:47AM 39.9639 -110.4389 327° Northwest 451 519 38,000  Level Salt Lake Center
12:48AM 40.0650 -110.5264 326° Northwest 453 521 38,000  Level Salt Lake Center
12:49AM 40.1811 -110.6322 325° Northwest 453 521 38,000  Level Salt Lake Center
12:50AM 40.2592 -110.7522 310° West 454 522 38,000  Level Salt Lake Center
12:51AM 40.3336 -110.8656 311° West 447 514 38,000  Level Salt Lake Center
12:52AM 40.4172 -110.9944 310° West 442 509 38,000  Level Salt Lake Center
12:53AM 40.5006 -111.1247 310° West 447 514 38,000  Level Salt Lake Center
12:54AM 40.5842 -111.2558 310° West 453 521 38,000  Level Salt Lake Center
12:55AM 40.6647 -111.3814 310° West 448 516 38,000  Level Salt Lake Center
12:56AM 40.7494 -111.5181 309° West 437 503 38,000  Level Salt Lake Center
12:57AM 40.8111 -111.6161 310° West 447 514 38,000  Level Salt Lake Center
12:58AM 40.8989 -111.7547 310° West 442 509 38,000  Level Salt Lake Center
12:59AM 40.9861 -111.8914 310° West 452 520 38,000  Level Salt Lake Center
01:00AM 41.0547 -112.0014 310° West 447 514 38,000  Level Salt Lake Center
01:01AM 41.1375 -112.1336 310° West 445 512 38,000  Level Salt Lake Center
01:02AM 41.2219 -112.2725 309° West 442 509 38,000  Level Salt Lake Center
01:03AM 41.3050 -112.4072 309° West 448 516 38,000  Level Salt Lake Center
01:04AM 41.3850 -112.5394 309° West 441 507 38,000  Level Salt Lake Center
01:05AM 41.4644 -112.6742 308° West 445 512 38,000  Level Salt Lake Center
01:06AM 41.5250 -112.7864 306° West 444 511 38,000  Level Salt Lake Center
01:07AM 41.6006 -112.9253 306° West 443 510 38,000  Level Salt Lake Center
01:08AM 41.6758 -113.0714 305° West 440 506 38,000  Level Salt Lake Center
01:09AM 41.7494 -113.2097 306° West 438 504 38,000  Level Salt Lake Center
01:10AM 41.8225 -113.3478 305° West 437 503 38,000  Level Salt Lake Center
01:11AM 41.8972 -113.4894 305° West 437 503 38,000  Level Salt Lake Center
01:12AM 41.9547 -113.6022 304° West 434 499 38,000  Level Salt Lake Center
01:13AM 42.0275 -113.7422 305° West 427 491 38,000  Level Salt Lake Center
01:14AM 42.1000 -113.8814 305° West 434 499 38,000  Level Salt Lake Center
01:15AM 42.1733 -114.0253 305° West 431 496 38,000  Level Salt Lake Center
01:16AM 42.2442 -114.1617 305° West 428 493 38,000  Level Salt Lake Center
01:17AM 42.3147 -114.3022 304° West 428 493 38,000  Level Salt Lake Center
01:18AM 42.3719 -114.4167 304° West 434 499 38,000  Level Salt Lake Center
01:19AM 42.4436 -114.5564 305° West 438 504 38,000  Level Salt Lake Center
01:20AM 42.5150 -114.6983 304° West 438 504 38,000  Level Salt Lake Center
01:21AM 42.5881 -114.8406 305° West 447 514 38,000  Level Salt Lake Center
01:22AM 42.6625 -114.9919 304° West 438 504 38,000  Level Salt Lake Center
01:23AM 42.7275 -115.1228 304° West 435 501 38,000  Level Salt Lake Center
01:24AM 42.7919 -115.2533 304° West 432 497 38,000  Level Salt Lake Center
01:25AM 42.8678 -115.4075 304° West 437 503 38,000  Level Salt Lake Center
01:26AM 42.9311 -115.5358 304° West 430 495 38,000  Level Salt Lake Center
01:27AM 43.0053 -115.6875 304° West 429 494 38,000  Level Salt Lake Center
01:28AM 43.0689 -115.8144 304° West 425 489 38,000  Level Salt Lake Center
01:29AM 43.1306 -115.9456 303° West 426 490 38,000  Level Salt Lake Center
01:30AM 43.2053 -116.1053 303° West 418 481 38,000  Level Salt Lake Center
01:31AM 43.2675 -116.2367 303° West 426 490 38,000  Level Salt Lake Center
01:32AM 43.3294 -116.3672 303° West 427 491 38,000  Level Salt Lake Center
01:33AM 43.4022 -116.5203 303° West 427 491 38,000  Level Salt Lake Center
01:35AM 43.4650 -116.6528 303° West 432 497 38,000  Level Salt Lake Center
01:36AM 43.5264 -116.7850 303° West 428 493 38,000  Level Salt Lake Center
01:37AM 43.5992 -116.9406 303° West 431 496 38,000  Level Salt Lake Center
01:38AM 43.6617 -117.0744 303° West 434 499 38,000  Level Salt Lake Center
01:39AM 43.7239 -117.2086 303° West 434 499 38,000  Level Salt Lake Center
01:40AM 43.7953 -117.3658 302° West 431 496 38,000  Level Salt Lake Center
01:41AM 43.8578 -117.5006 303° West 433 498 38,000  Level Salt Lake Center
01:42AM 43.9186 -117.6356 302° West 432 497 38,000  Level Salt Lake Center
01:43AM 43.9900 -117.7925 302° West 431 496 38,000  Level Salt Lake Center
01:44AM 44.0500 -117.9258 302° West 426 490 38,000  Level Salt Lake Center
01:45AM 44.1189 -118.0817 302° West 424 488 38,000  Level Salt Lake Center
01:46AM 44.1797 -118.2169 302° West 427 491 38,000  Level Salt Lake Center
01:47AM 44.2414 -118.3522 303° West 431 496 38,000  Level Salt Lake Center
01:48AM 44.3114 -118.5089 302° West 434 499 38,000  Level Salt Lake Center
01:49AM 44.3739 -118.6519 301° West 431 496 38,000  Level Salt Lake Center
01:50AM 44.4372 -118.7944 302° West 433 498 38,000  Level Salt Lake Center
01:51AM 44.4989 -118.9383 301° West 432 497 38,000  Level Salt Lake Center
01:52AM 44.5606 -119.0831 301° West 433 498 38,000  Level Salt Lake Center
01:53AM 44.6228 -119.2253 302° West 429 494 38,000  Level Salt Lake Center
01:54AM 44.6842 -119.3683 301° West 429 494 38,000  Level Salt Lake Center
01:55AM 44.7458 -119.5122 301° West 428 493 38,000  Level Salt Lake Center
01:56AM 44.8064 -119.6550 301° West 427 491 38,000 -300 Level Salt Lake Center
01:57AM 44.8667 -119.7972 301° West 423 487 37,500 -720 Descending Salt Lake Center
01:58AM 44.9458 -119.9842 301° West 421 484 36,400 -1,500 Descending Seattle Center
01:59AM 45.0128 -120.1472 300° West 419 482 34,000 -2,460 Descending Seattle Center
02:00AM 45.0722 -120.2900 301° West 420 483 31,500 -2,640 Descending Seattle Center
02:01AM 45.1314 -120.4328 300° West 422 486 28,700 -2,280 Descending Seattle Center
02:02AM 45.1878 -120.5711 300° West 413 475 26,900 -2,040 Descending Seattle Center
02:03AM 45.2386 -120.7056 298° West 396 456 24,700 -2,160 Descending Seattle Center
02:04AM 45.2892 -120.8353 299° West 383 441 22,600 -2,040 Descending Seattle Center
02:05AM 45.3386 -120.9639 299° West 375 432 20,600 -2,220 Descending Seattle Center
02:06AM 45.3858 -121.0889 298° West 365 420 18,200 -2,040 Descending Seattle Center
02:07AM 45.4306 -121.2139 297° West 356 410 16,500 -1,860 Descending Seattle Center
02:08AM 45.4453 -121.2978 284° West 341 392 15,300 -2,100 Descending Seattle Center
02:09AM 45.4658 -121.3942 287° West 326 375 13,800 -1,860 Descending Seattle Center
02:09AM 45.4797 -121.4647 286° West 328 377 12,700 -1,620 Descending Seattle Center
02:10AM 45.5033 -121.5847 286° West 321 369 11,000 -1,380 Descending Seattle Center
02:11AM 45.5297 -121.7256 285° West 290 334 9,900 -960 Descending Seattle Center
02:12AM 45.5300 -121.8211 270° West 272 313 9,100 -900 Descending Seattle Center
02:13AM 45.5253 -121.9178 266° West 276 318 8,200 -1,140 Descending Seattle Center
02:14AM 45.5206 -122.0242 266° West 275 316 6,900 -1,380 Descending Seattle Center
02:15AM 45.5181 -122.1506 268° West 265 305 5,500 -1,020 Descending Seattle Center
02:16AM 45.5178 -122.2328 270° West 267 307 4,900 -960 Descending Seattle Center
02:17AM 45.5147 -122.3256 267° West 252 290 3,600 -1,320 Descending Seattle Center